Time;durP1;ratioP1;P1;durP2;ratioP2;P2;SDS_P1;SDS_P2;PMS_P1;PMS_P2;Temp;Humidity;BMP_temperature;BMP_pressure;BME280_temperature;BME280_humidity;BME280_pressure;Samples;Min_cycle;Max_cycle;Signal;HPM_P1;HPM_P2
2023/06/18 00:00:17;;;;;;;11.90;10.70;;;;;;;15.35;83.47;100707.15;108000;1252;72903;-73
2023/06/18 00:02:44;;;;;;;11.90;10.60;;;;;;;15.33;83.22;100712.09;108656;1253;62022;-72
2023/06/18 00:05:11;;;;;;;12.50;11.00;;;;;;;15.30;83.54;100710.98;108402;1253;60055;-73
2023/06/18 00:07:38;;;;;;;13.20;11.50;;;;;;;15.28;83.71;100715.17;108202;1256;74574;-72
2023/06/18 00:10:05;;;;;;;12.20;10.80;;;;;;;15.25;83.88;100712.58;108108;1253;70492;-74
2023/06/18 00:12:32;;;;;;;12.30;10.40;;;;;;;15.18;83.85;100708.23;108141;1253;71249;-73
2023/06/18 00:15:00;;;;;;;12.50;10.60;;;;;;;15.09;83.64;100705.58;108088;1254;60350;-73
2023/06/18 00:17:27;;;;;;;12.50;10.70;;;;;;;15.04;83.75;100712.89;108099;1255;59328;-74
2023/06/18 00:19:54;;;;;;;12.30;10.60;;;;;;;14.99;83.67;100707.48;108378;1254;75515;-72
2023/06/18 00:22:21;;;;;;;12.20;10.80;;;;;;;14.94;83.94;100706.31;108125;1254;70139;-72
2023/06/18 00:24:48;;;;;;;13.00;10.90;;;;;;;14.91;83.97;100703.35;107849;1253;71529;-73
2023/06/18 00:27:15;;;;;;;13.00;10.70;;;;;;;14.89;84.09;100703.75;107933;1257;61365;-74
2023/06/18 00:29:46;;;;;;;13.40;10.70;;;;;;;14.89;84.26;100704.20;108516;1253;59286;-74
2023/06/18 00:32:14;;;;;;;13.10;11.00;;;;;;;14.89;84.48;100700.95;108598;1255;74706;-73
2023/06/18 00:34:42;;;;;;;12.70;10.70;;;;;;;14.89;84.57;100697.33;108549;1253;70860;-73
2023/06/18 00:37:12;;;;;;;12.80;11.00;;;;;;;14.90;84.62;100696.56;108396;1252;71917;-74
2023/06/18 00:39:39;;;;;;;13.40;10.70;;;;;;;14.91;84.77;100695.79;108092;1252;61620;-73
2023/06/18 00:42:07;;;;;;;12.70;10.40;;;;;;;14.91;84.79;100691.59;107909;1256;59219;-73
2023/06/18 00:44:34;;;;;;;11.70;10.40;;;;;;;14.91;84.71;100693.23;108298;1253;73286;-73
2023/06/18 00:47:02;;;;;;;13.10;10.80;;;;;;;14.90;85.01;100688.60;108462;1254;70080;-74
2023/06/18 00:49:29;;;;;;;13.50;11.20;;;;;;;14.89;85.27;100687.64;108238;1254;72134;-73
2023/06/18 00:51:57;;;;;;;14.80;11.20;;;;;;;14.87;85.49;100683.00;107862;1253;61192;-73
2023/06/18 00:54:27;;;;;;;13.70;10.90;;;;;;;14.86;85.42;100681.44;108109;1252;61125;-73
2023/06/18 00:56:55;;;;;;;14.70;11.70;;;;;;;14.84;85.68;100686.08;107988;1253;74689;-73
2023/06/18 00:59:22;;;;;;;12.40;11.00;;;;;;;14.82;85.74;100689.23;108308;1257;70855;-73
2023/06/18 01:01:51;;;;;;;12.40;11.10;;;;;;;14.80;85.69;100688.49;108033;1256;72443;-73
2023/06/18 01:04:20;;;;;;;13.10;11.20;;;;;;;14.77;85.91;100692.60;108423;1254;63197;-73
2023/06/18 01:06:53;;;;;;;13.00;10.80;;;;;;;14.73;85.74;100690.05;108017;1254;60095;-73
2023/06/18 01:09:21;;;;;;;12.70;11.10;;;;;;;14.69;86.10;100692.02;108073;1256;74738;-73
2023/06/18 01:11:51;;;;;;;12.70;11.10;;;;;;;14.65;86.02;100692.90;107490;1258;422618;-72
2023/06/18 01:14:22;;;;;;;13.70;11.00;;;;;;;14.61;86.33;100694.23;108344;1254;71868;-73
2023/06/18 01:16:51;;;;;;;13.80;11.80;;;;;;;14.57;86.51;100692.75;108739;1252;62905;-74
2023/06/18 01:19:40;;;;;;;13.90;11.30;;;;;;;14.56;86.72;100693.77;108070;1252;60697;-73
2023/06/18 01:22:30;;;;;;;14.30;11.70;;;;;;;14.53;87.11;100694.23;108337;1254;74669;-73
2023/06/18 01:24:58;;;;;;;13.50;12.10;;;;;;;14.51;87.26;100686.59;108123;1253;71795;-73
2023/06/18 01:27:27;;;;;;;13.90;12.50;;;;;;;14.47;87.58;100688.59;107853;1255;72711;-72
2023/06/18 01:29:56;;;;;;;15.40;12.60;;;;;;;14.44;87.44;100686.33;108187;1252;60813;-73
2023/06/18 01:32:23;;;;;;;14.10;12.50;;;;;;;14.41;87.39;100685.17;107954;1251;62481;-73
2023/06/18 01:34:53;;;;;;;14.40;11.90;;;;;;;14.37;87.52;100686.30;108159;1254;74347;-73
2023/06/18 01:37:35;;;;;;;13.40;11.90;;;;;;;14.32;87.46;100692.44;108079;1253;69954;-72
2023/06/18 01:40:12;;;;;;;14.00;12.30;;;;;;;14.24;87.24;100693.15;107992;1253;71172;-73
2023/06/18 01:42:47;;;;;;;15.60;12.60;;;;;;;14.20;87.53;100691.94;108128;1253;60852;-73
2023/06/18 01:45:26;;;;;;;18.20;13.10;;;;;;;14.16;87.70;100696.19;107922;1253;61459;-73
2023/06/18 01:48:00;;;;;;;15.20;13.50;;;;;;;14.12;87.98;100697.28;107945;1251;73837;-73
2023/06/18 01:50:28;;;;;;;14.70;13.20;;;;;;;14.07;88.58;100695.94;107997;1255;70883;-73
2023/06/18 01:52:58;;;;;;;15.80;13.90;;;;;;;14.03;88.88;100700.89;108047;1253;72774;-73
2023/06/18 01:55:29;;;;;;;17.20;13.50;;;;;;;14.01;89.31;100706.05;107798;1253;61815;-74
2023/06/18 01:57:56;;;;;;;15.00;13.30;;;;;;;13.98;89.45;100705.50;108193;1254;61302;-73
2023/06/18 02:00:23;;;;;;;14.60;12.90;;;;;;;13.95;89.48;100709.59;108523;1256;72612;-73
2023/06/18 02:02:51;;;;;;;13.60;12.10;;;;;;;13.90;89.26;100707.71;108183;1251;70270;-73
2023/06/18 02:05:18;;;;;;;15.10;13.50;;;;;;;13.86;89.40;100711.55;108061;1253;72026;-73
2023/06/18 02:07:46;;;;;;;14.70;12.70;;;;;;;13.81;89.24;100710.81;107846;1251;61315;-72
2023/06/18 02:10:13;;;;;;;14.40;12.70;;;;;;;13.76;89.43;100711.78;108005;1252;59464;-72
2023/06/18 02:12:40;;;;;;;15.90;13.50;;;;;;;13.72;89.56;100712.31;108315;1254;73478;-72
2023/06/18 02:15:07;;;;;;;15.30;13.00;;;;;;;13.69;89.85;100713.81;108131;1254;69942;-72
2023/06/18 02:17:35;;;;;;;15.80;14.00;;;;;;;13.65;89.80;100719.09;108523;1253;71994;-74
2023/06/18 02:20:03;;;;;;;17.80;14.40;;;;;;;13.61;90.23;100720.12;108124;1253;61951;-73
2023/06/18 02:22:30;;;;;;;18.50;15.40;;;;;;;13.57;90.80;100718.70;108329;1253;60447;-73
2023/06/18 02:24:57;;;;;;;17.40;15.20;;;;;;;13.53;91.32;100720.48;108107;1253;74235;-73
2023/06/18 02:27:24;;;;;;;18.10;15.40;;;;;;;13.50;91.63;100721.19;108217;1254;69350;-74
2023/06/18 02:29:51;;;;;;;19.00;15.30;;;;;;;13.48;92.05;100722.52;107748;1254;71495;-72
2023/06/18 02:32:18;;;;;;;18.40;15.00;;;;;;;13.47;92.24;100720.67;108196;1256;61127;-73
2023/06/18 02:34:45;;;;;;;17.60;15.00;;;;;;;13.46;92.46;100719.52;108216;1254;61154;-72
2023/06/18 02:37:11;;;;;;;17.90;15.20;;;;;;;13.45;92.46;100716.61;108197;1257;74630;-72
2023/06/18 02:39:38;;;;;;;18.10;15.20;;;;;;;13.44;92.65;100719.54;107823;1257;70314;-74
2023/06/18 02:42:06;;;;;;;16.90;14.40;;;;;;;13.43;92.68;100721.95;108263;1252;72709;-73
2023/06/18 02:44:33;;;;;;;17.30;15.20;;;;;;;13.41;92.92;100719.08;107996;1252;61831;-74
2023/06/18 02:47:00;;;;;;;19.80;15.20;;;;;;;13.39;92.92;100712.71;108208;1253;61161;-73
2023/06/18 02:49:27;;;;;;;18.90;15.60;;;;;;;13.39;93.27;100717.37;107735;1254;73643;-73
2023/06/18 02:51:54;;;;;;;16.60;14.60;;;;;;;13.39;93.69;100717.78;108124;1253;71826;-72
2023/06/18 02:54:21;;;;;;;20.10;14.90;;;;;;;13.39;93.62;100715.81;108093;1253;72774;-73
2023/06/18 02:56:48;;;;;;;19.30;15.20;;;;;;;13.38;93.40;100715.31;108034;1253;62046;-73
2023/06/18 02:59:16;;;;;;;18.20;15.30;;;;;;;13.37;93.45;100712.08;108014;1254;61253;-72
2023/06/18 03:01:44;;;;;;;18.10;15.10;;;;;;;13.37;93.60;100708.05;108478;1254;73486;-73
2023/06/18 03:04:12;;;;;;;18.90;15.30;;;;;;;13.36;93.47;100708.98;108276;1252;70210;-73
2023/06/18 03:06:38;;;;;;;17.50;15.40;;;;;;;13.35;93.78;100708.45;107924;1254;72709;-72
2023/06/18 03:09:05;;;;;;;18.00;15.10;;;;;;;13.34;93.63;100706.06;108532;1252;61702;-72
2023/06/18 03:11:32;;;;;;;18.30;15.60;;;;;;;13.34;93.80;100709.13;108499;1254;59322;-74
2023/06/18 03:13:59;;;;;;;18.10;16.20;;;;;;;13.34;93.92;100711.13;107645;1254;73724;-72
2023/06/18 03:16:26;;;;;;;19.40;16.00;;;;;;;13.33;94.21;100709.58;107878;1254;70229;-72
2023/06/18 03:18:53;;;;;;;18.50;16.50;;;;;;;13.33;94.12;100710.16;108180;1252;71533;-72
2023/06/18 03:21:20;;;;;;;17.80;15.90;;;;;;;13.34;94.12;100711.06;108800;1251;62516;-72
2023/06/18 03:23:47;;;;;;;19.20;16.20;;;;;;;13.36;94.43;100713.36;108210;1252;59814;-73
2023/06/18 03:26:15;;;;;;;19.00;16.20;;;;;;;13.38;94.26;100715.27;108211;1253;73747;-73
2023/06/18 03:28:42;;;;;;;19.40;16.20;;;;;;;13.38;94.35;100718.05;108382;1254;70031;-73
2023/06/18 03:31:09;;;;;;;19.90;16.00;;;;;;;13.38;94.37;100718.71;107916;1254;72071;-73
2023/06/18 03:33:36;;;;;;;18.70;15.70;;;;;;;13.40;94.54;100717.83;108158;1252;60822;-73
2023/06/18 03:36:05;;;;;;;17.80;14.50;;;;;;;13.41;94.18;100713.38;107633;1254;61252;-72
2023/06/18 03:38:32;;;;;;;16.20;14.20;;;;;;;13.41;93.96;100715.92;108350;1253;76998;-72
2023/06/18 03:40:59;;;;;;;21.90;14.90;;;;;;;13.42;93.78;100721.66;107726;1254;71177;-72
2023/06/18 03:43:26;;;;;;;19.00;15.00;;;;;;;13.42;93.75;100724.40;108096;1254;71949;-72
2023/06/18 03:45:52;;;;;;;18.10;14.30;;;;;;;13.44;93.65;100727.63;108824;1253;61736;-72
2023/06/18 03:48:20;;;;;;;19.40;13.80;;;;;;;13.44;93.43;100725.93;108509;1253;59190;-72
2023/06/18 03:50:47;;;;;;;17.90;14.60;;;;;;;13.44;93.18;100722.58;107715;1254;73278;-73
2023/06/18 03:53:14;;;;;;;17.80;14.20;;;;;;;13.43;93.22;100720.37;107769;1253;71182;-73
2023/06/18 03:55:41;;;;;;;20.40;14.80;;;;;;;13.44;93.23;100723.73;107834;1253;72764;-74
2023/06/18 03:58:09;;;;;;;18.10;14.50;;;;;;;13.44;93.13;100726.67;108070;1253;60772;-73
2023/06/18 04:00:35;;;;;;;17.10;14.30;;;;;;;13.46;93.23;100726.64;108458;1253;59107;-73
2023/06/18 04:03:04;;;;;;;17.50;15.20;;;;;;;13.48;93.16;100728.55;107826;1254;73730;-73
2023/06/18 04:05:31;;;;;;;19.50;15.60;;;;;;;13.50;93.11;100727.41;107882;1254;69492;-74
2023/06/18 04:07:58;;;;;;;18.30;15.80;;;;;;;13.52;93.33;100725.42;108376;1253;72795;-72
2023/06/18 04:10:25;;;;;;;21.80;16.20;;;;;;;13.55;93.61;100726.39;107863;1254;62040;-72
2023/06/18 04:12:52;;;;;;;20.20;16.10;;;;;;;13.59;93.75;100724.86;107667;1254;61192;-73
2023/06/18 04:15:19;;;;;;;22.30;17.00;;;;;;;13.66;94.00;100726.42;107996;1254;72377;-73
2023/06/18 04:17:45;;;;;;;20.90;16.60;;;;;;;13.74;94.21;100721.55;108768;1252;72373;-74
2023/06/18 04:20:12;;;;;;;20.80;17.30;;;;;;;13.81;94.36;100725.09;107984;1253;72370;-72
2023/06/18 04:22:40;;;;;;;21.10;16.70;;;;;;;13.90;94.42;100729.48;108520;1253;61342;-73
2023/06/18 04:25:07;;;;;;;20.10;15.50;;;;;;;13.99;94.61;100727.08;108711;1252;61116;-73
2023/06/18 04:27:34;;;;;;;20.30;16.50;;;;;;;14.07;94.35;100728.30;108099;1252;72337;-74
2023/06/18 04:30:01;;;;;;;19.10;16.30;;;;;;;14.16;94.34;100726.08;108247;1253;69781;-73
2023/06/18 04:32:28;;;;;;;19.60;17.30;;;;;;;14.26;94.31;100728.70;107851;1254;72541;-74
2023/06/18 04:34:55;;;;;;;20.70;16.90;;;;;;;14.37;94.32;100730.77;108461;1253;61186;-74
2023/06/18 04:37:22;;;;;;;19.90;16.60;;;;;;;14.48;94.19;100732.54;108592;1251;60396;-73
2023/06/18 04:39:49;;;;;;;20.50;18.30;;;;;;;14.59;94.02;100728.24;107962;1253;73641;-75
2023/06/18 04:42:16;;;;;;;20.60;17.70;;;;;;;14.70;93.87;100730.55;108103;1252;70163;-74
2023/06/18 04:44:43;;;;;;;21.20;17.40;;;;;;;14.81;93.64;100727.45;108727;1253;71492;-74
2023/06/18 04:47:10;;;;;;;20.60;17.40;;;;;;;14.93;93.47;100726.04;108129;1252;62252;-74
2023/06/18 04:49:37;;;;;;;21.60;17.60;;;;;;;15.05;93.27;100720.86;107981;1252;61292;-74
2023/06/18 04:52:04;;;;;;;20.70;17.30;;;;;;;15.17;93.02;100714.71;108591;1252;73547;-74
2023/06/18 04:54:31;;;;;;;18.90;16.60;;;;;;;15.30;92.85;100717.10;107772;1253;69718;-73
2023/06/18 04:56:58;;;;;;;20.80;17.20;;;;;;;15.41;92.49;100718.75;108433;1254;72152;-73
2023/06/18 04:59:25;;;;;;;18.40;16.30;;;;;;;15.52;92.18;100720.89;107890;1254;61740;-74
2023/06/18 05:01:53;;;;;;;19.30;15.90;;;;;;;15.62;91.77;100723.63;108250;1253;61231;-75
2023/06/18 05:04:20;;;;;;;18.90;15.50;;;;;;;15.70;91.50;100722.73;107962;1253;73412;-73
2023/06/18 05:06:47;;;;;;;18.30;15.00;;;;;;;15.79;91.22;100724.42;108336;1253;71312;-73
2023/06/18 05:09:15;;;;;;;20.00;15.20;;;;;;;15.87;91.00;100722.92;107967;1253;72745;-73
2023/06/18 05:11:42;;;;;;;17.60;14.90;;;;;;;15.98;90.71;100723.23;108458;1252;61366;-74
2023/06/18 05:14:09;;;;;;;18.40;15.20;;;;;;;16.11;90.50;100728.95;108090;1252;59717;-75
2023/06/18 05:16:36;;;;;;;15.90;13.50;;;;;;;16.24;89.96;100731.27;108285;1252;74715;-74
2023/06/18 05:19:03;;;;;;;16.20;13.90;;;;;;;16.36;89.24;100729.36;108012;1253;71640;-74
2023/06/18 05:21:30;;;;;;;17.30;13.80;;;;;;;16.49;88.86;100729.30;108214;1253;72746;-74
2023/06/18 05:23:56;;;;;;;18.10;14.00;;;;;;;16.62;88.61;100728.79;108074;1252;61285;-75
2023/06/18 05:26:24;;;;;;;17.70;13.30;;;;;;;16.73;88.14;100731.77;108124;1253;61093;-74
2023/06/18 05:28:51;;;;;;;15.60;13.40;;;;;;;16.84;87.51;100732.28;108061;1253;74199;-74
2023/06/18 05:31:18;;;;;;;15.20;13.10;;;;;;;16.94;87.30;100737.98;108128;1252;70025;-75
2023/06/18 05:33:45;;;;;;;15.30;12.70;;;;;;;17.06;86.87;100740.30;108210;1252;73188;-75
2023/06/18 05:36:12;;;;;;;16.10;13.50;;;;;;;17.14;86.04;100737.48;107869;1252;61345;-74
2023/06/18 05:38:39;;;;;;;15.50;13.30;;;;;;;17.22;85.80;100740.36;108638;1253;61254;-74
2023/06/18 05:41:05;;;;;;;16.30;13.30;;;;;;;17.31;85.70;100744.21;107711;1253;73522;-73
2023/06/18 05:43:33;;;;;;;16.80;13.30;;;;;;;17.42;85.68;100740.03;108045;1251;71628;-72
2023/06/18 05:45:59;;;;;;;15.90;13.90;;;;;;;17.52;85.08;100740.11;108452;1252;71444;-74
2023/06/18 05:48:27;;;;;;;16.90;14.80;;;;;;;17.63;84.78;100742.00;108050;1254;60596;-73
2023/06/18 05:50:54;;;;;;;17.10;14.50;;;;;;;17.75;84.65;100741.67;108532;1251;61108;-73
2023/06/18 05:53:21;;;;;;;17.60;14.10;;;;;;;17.87;84.09;100741.55;108226;1252;74646;-73
2023/06/18 05:55:48;;;;;;;17.80;14.20;;;;;;;18.02;84.10;100746.44;108195;1254;71382;-74
2023/06/18 05:58:15;;;;;;;16.20;14.20;;;;;;;18.19;83.96;100752.90;107842;1254;72089;-72
2023/06/18 06:00:42;;;;;;;15.80;13.50;;;;;;;18.37;83.58;100752.11;108002;1252;63853;-72
2023/06/18 06:03:09;;;;;;;17.20;14.20;;;;;;;18.53;82.69;100756.21;108020;1252;61752;-72
2023/06/18 06:05:36;;;;;;;15.70;13.80;;;;;;;18.69;82.12;100755.48;108459;1253;72251;-74
2023/06/18 06:08:03;;;;;;;14.70;13.00;;;;;;;18.83;81.40;100758.50;108274;1254;71231;-73
2023/06/18 06:10:30;;;;;;;17.10;13.70;;;;;;;18.96;81.19;100759.77;108162;1252;72000;-73
2023/06/18 06:12:57;;;;;;;16.20;13.70;;;;;;;19.12;81.08;100757.92;107951;1254;61352;-73
2023/06/18 06:15:24;;;;;;;14.80;13.20;;;;;;;19.27;80.46;100755.56;107972;1253;59363;-73
2023/06/18 06:17:50;;;;;;;16.20;13.00;;;;;;;19.41;79.50;100753.74;108015;1253;74643;-74
2023/06/18 06:20:18;;;;;;;14.80;12.50;;;;;;;19.54;79.06;100755.19;108096;1253;69705;-74
2023/06/18 06:22:45;;;;;;;17.70;13.00;;;;;;;19.68;78.67;100756.07;108209;1253;71287;-73
2023/06/18 06:25:12;;;;;;;16.20;12.50;;;;;;;19.81;77.71;100754.70;108368;1252;62276;-73
2023/06/18 06:27:39;;;;;;;16.60;12.10;;;;;;;19.91;77.30;100756.50;107977;1252;61245;-73
2023/06/18 06:30:07;;;;;;;14.00;11.70;;;;;;;20.05;76.82;100759.64;108074;1253;74737;-73
2023/06/18 06:32:35;;;;;;;13.80;12.00;;;;;;;20.16;76.20;100758.17;108260;1251;69959;-73
2023/06/18 06:35:03;;;;;;;14.60;11.70;;;;;;;20.31;75.70;100754.44;108170;1252;72487;-73
2023/06/18 06:37:32;;;;;;;12.40;11.10;;;;;;;20.47;75.09;100754.22;108345;1253;60878;-73
2023/06/18 06:39:59;;;;;;;13.10;10.40;;;;;;;20.63;74.49;100756.80;108336;1251;61185;-76
2023/06/18 06:42:26;;;;;;;11.30;9.30;;;;;;;20.77;73.66;100761.61;108589;1252;74206;-74
2023/06/18 06:44:53;;;;;;;11.20;9.70;;;;;;;20.92;73.06;100760.00;108543;1251;69972;-75
2023/06/18 06:47:20;;;;;;;11.50;9.50;;;;;;;21.07;72.48;100759.63;107831;1255;72461;-74
2023/06/18 06:49:47;;;;;;;10.10;8.40;;;;;;;21.22;71.72;100760.79;108376;1254;59799;-74
2023/06/18 06:52:14;;;;;;;10.20;8.80;;;;;;;21.34;70.33;100764.23;108484;1252;59636;-73
2023/06/18 06:54:40;;;;;;;9.70;8.50;;;;;;;21.46;69.87;100768.13;108206;1252;73535;-74
2023/06/18 06:57:07;;;;;;;10.30;8.60;;;;;;;21.58;69.18;100770.86;107898;1253;71249;-73
2023/06/18 06:59:34;;;;;;;11.50;8.30;;;;;;;21.71;68.48;100772.73;107848;1253;72694;-74
2023/06/18 07:02:01;;;;;;;13.40;8.50;;;;;;;21.83;67.84;100778.84;108471;1252;62162;-74
2023/06/18 07:04:28;;;;;;;9.80;8.00;;;;;;;21.98;67.44;100781.76;107977;1253;59155;-74
2023/06/18 07:06:58;;;;;;;11.20;8.30;;;;;;;22.11;67.09;100776.38;107713;1253;74752;-73
2023/06/18 07:09:25;;;;;;;10.20;8.10;;;;;;;22.22;65.31;100772.97;108066;1253;69993;-74
2023/06/18 07:11:52;;;;;;;8.80;7.70;;;;;;;22.28;64.12;100773.70;108193;1252;73372;-74
2023/06/18 07:14:19;;;;;;;10.50;8.50;;;;;;;22.38;64.21;100773.71;107920;1253;61117;-75
2023/06/18 07:16:46;;;;;;;11.50;8.40;;;;;;;22.44;62.91;100775.13;107845;1251;60397;-75
2023/06/18 07:19:12;;;;;;;11.50;8.30;;;;;;;22.53;63.33;100775.73;108157;1252;72789;-75
2023/06/18 07:21:39;;;;;;;10.90;8.00;;;;;;;22.59;62.38;100772.52;108673;1253;69905;-74
2023/06/18 07:24:06;;;;;;;10.20;7.90;;;;;;;22.67;62.29;100769.39;107733;1254;71162;-75
2023/06/18 07:26:33;;;;;;;10.60;8.40;;;;;;;22.77;62.38;100769.13;108096;1251;59531;-75
2023/06/18 07:29:00;;;;;;;9.70;7.70;;;;;;;22.90;62.18;100769.42;108264;1252;61308;-73
2023/06/18 07:31:27;;;;;;;12.40;8.10;;;;;;;22.98;60.64;100768.98;107915;1253;72822;-72
2023/06/18 07:33:55;;;;;;;11.00;7.70;;;;;;;23.08;60.55;100768.34;107851;1255;70310;-75
2023/06/18 07:36:22;;;;;;;8.70;7.00;;;;;;;23.19;60.39;100772.43;107977;1252;72753;-73
2023/06/18 07:38:49;;;;;;;10.30;7.50;;;;;;;23.31;59.91;100775.20;108152;1252;59232;-73
2023/06/18 07:41:16;;;;;;;10.60;7.90;;;;;;;23.41;59.57;100775.32;108732;1253;59102;-73
2023/06/18 07:43:43;;;;;;;11.10;8.50;;;;;;;23.51;59.53;100772.31;107736;1253;74748;-73
2023/06/18 07:46:10;;;;;;;9.20;7.80;;;;;;;23.63;59.56;100773.48;108359;1253;71311;-74
2023/06/18 07:48:37;;;;;;;10.20;7.80;;;;;;;23.75;59.49;100770.70;107954;1253;72733;-74
2023/06/18 07:51:04;;;;;;;9.70;8.30;;;;;;;23.89;59.48;100775.42;108173;1252;59328;-74
2023/06/18 07:53:35;;;;;;;8.90;7.70;;;;;;;23.97;58.41;100770.15;108230;1252;61359;-73
2023/06/18 07:56:02;;;;;;;8.10;7.20;;;;;;;24.02;57.14;100763.73;108205;1252;74839;-76
2023/06/18 07:58:29;;;;;;;9.00;7.60;;;;;;;24.09;56.11;100761.31;108061;1253;71226;-75
2023/06/18 08:00:56;;;;;;;8.70;7.70;;;;;;;24.12;55.45;100760.73;108455;1253;71182;-76
2023/06/18 08:03:23;;;;;;;10.00;7.30;;;;;;;24.16;54.65;100757.03;108005;1253;61276;-75
2023/06/18 08:05:50;;;;;;;8.40;7.30;;;;;;;24.18;55.32;100760.45;108344;1252;61403;-74
2023/06/18 08:08:17;;;;;;;8.70;7.70;;;;;;;24.29;56.17;100754.53;107966;1253;74603;-74
2023/06/18 08:10:44;;;;;;;8.30;7.20;;;;;;;24.40;56.16;100754.85;108296;1254;71472;-74
2023/06/18 08:13:11;;;;;;;10.30;8.00;;;;;;;24.54;56.02;100752.16;108175;1252;72123;-74
2023/06/18 08:15:37;;;;;;;8.80;7.40;;;;;;;24.67;55.65;100747.95;108454;1252;61308;-74
2023/06/18 08:18:04;;;;;;;8.30;7.40;;;;;;;24.76;55.06;100745.91;108568;1252;61856;-75
2023/06/18 08:20:32;;;;;;;7.70;6.90;;;;;;;24.88;54.86;100748.59;108005;1253;73989;-74
2023/06/18 08:22:58;;;;;;;8.40;7.10;;;;;;;25.02;54.09;100747.46;108272;1252;71214;-74
2023/06/18 08:25:25;;;;;;;7.90;7.00;;;;;;;25.07;52.71;100750.79;108225;1253;73587;-73
2023/06/18 08:27:52;;;;;;;8.40;6.30;;;;;;;25.12;52.56;100748.84;108265;1252;60462;-74
2023/06/18 08:30:19;;;;;;;7.00;6.30;;;;;;;25.22;52.21;100748.42;108186;1251;61230;-73
2023/06/18 08:32:46;;;;;;;7.60;6.80;;;;;;;25.32;52.02;100745.38;108521;1252;75009;-73
2023/06/18 08:35:17;;;;;;;7.80;6.60;;;;;;;25.43;52.07;100745.98;107842;1253;70013;-73
2023/06/18 08:37:47;;;;;;;7.50;6.60;;;;;;;25.54;51.99;100744.16;108189;1252;72835;-74
2023/06/18 08:40:15;;;;;;;7.10;6.40;;;;;;;25.70;51.77;100747.79;108276;1252;61334;-73
2023/06/18 08:42:41;;;;;;;7.60;5.20;;;;;;;25.81;50.08;100746.07;108224;1252;60428;-74
2023/06/18 08:45:20;;;;;;;6.80;5.40;;;;;;;25.91;48.55;100745.36;107919;1252;75610;-73
2023/06/18 08:47:50;;;;;;;6.90;5.80;;;;;;;26.02;48.29;100745.29;107955;1252;69723;-76
2023/06/18 08:50:19;;;;;;;6.80;5.40;;;;;;;26.11;47.96;100741.45;108557;1253;71503;-74
2023/06/18 08:52:51;;;;;;;5.60;4.90;;;;;;;26.22;47.32;100739.66;108414;1252;59523;-73
2023/06/18 08:55:18;;;;;;;7.20;5.20;;;;;;;26.24;46.32;100732.96;108523;1252;59541;-74
2023/06/18 08:58:01;;;;;;;5.70;5.00;;;;;;;26.29;45.58;100735.16;107967;1251;73153;-75
2023/06/18 09:00:28;;;;;;;6.70;5.00;;;;;;;26.38;45.13;100731.85;108441;1252;70532;-74
2023/06/18 09:02:55;;;;;;;5.60;4.70;;;;;;;26.47;44.61;100731.38;107691;1253;71535;-74
2023/06/18 09:05:23;;;;;;;6.50;5.20;;;;;;;26.55;44.58;100728.02;108265;1253;60470;-75
2023/06/18 09:07:50;;;;;;;6.10;4.90;;;;;;;26.57;44.29;100730.90;108539;1253;61111;-74
2023/06/18 09:10:18;;;;;;;5.90;5.20;;;;;;;26.63;44.03;100734.20;107875;1253;75884;-73
2023/06/18 09:12:45;;;;;;;5.40;4.70;;;;;;;26.66;43.29;100731.46;108539;1252;71347;-74
2023/06/18 09:15:13;;;;;;;5.80;4.40;;;;;;;26.66;43.19;100729.56;108440;1252;71452;-73
2023/06/18 09:17:40;;;;;;;6.90;5.30;;;;;;;26.67;43.03;100729.00;108130;1252;60944;-75
2023/06/18 09:20:09;;;;;;;6.70;5.10;;;;;;;26.74;44.43;100731.95;108325;1252;60062;-73
2023/06/18 09:22:47;;;;;;;6.90;5.00;;;;;;;26.89;44.36;100729.27;108514;1252;73309;-73
2023/06/18 09:25:21;;;;;;;6.20;4.40;;;;;;;27.02;43.96;100730.39;107829;1252;71227;-73
2023/06/18 09:27:49;;;;;;;5.30;4.60;;;;;;;27.17;43.33;100732.34;108668;1251;71134;-74
2023/06/18 09:30:20;;;;;;;6.10;4.30;;;;;;;27.30;43.31;100731.70;107777;1251;61821;-73
2023/06/18 09:32:47;;;;;;;6.10;5.00;;;;;;;27.42;42.50;100725.45;108294;1252;61340;-74
2023/06/18 09:35:18;;;;;;;6.30;5.30;;;;;;;27.53;42.38;100727.95;108682;1252;73959;-75
2023/06/18 09:37:45;;;;;;;6.70;4.80;;;;;;;27.57;41.88;100726.38;108391;1252;69456;-75
2023/06/18 09:40:16;;;;;;;6.60;4.30;;;;;;;27.61;41.35;100725.24;108040;1251;71510;-72
2023/06/18 09:42:44;;;;;;;5.60;4.30;;;;;;;27.66;41.26;100727.27;107929;1252;61371;-73
2023/06/18 09:45:12;;;;;;;5.70;4.20;;;;;;;27.72;40.48;100725.30;108347;1252;61169;-74
2023/06/18 09:47:41;;;;;;;5.80;4.00;;;;;;;27.83;40.40;100725.46;107765;1252;76158;-73
2023/06/18 09:50:10;;;;;;;6.10;4.20;;;;;;;27.94;39.69;100724.70;108537;1253;69750;-73
2023/06/18 09:52:45;;;;;;;5.00;4.20;;;;;;;28.03;39.44;100722.19;108212;1251;72818;-72
2023/06/18 09:55:25;;;;;;;6.80;4.80;;;;;;;28.12;38.67;100722.02;108710;1251;60227;-73
2023/06/18 09:57:51;;;;;;;11.40;10.40;;;;;;;28.18;39.01;100713.10;107893;1253;61329;-72
2023/06/18 10:00:19;;;;;;;8.20;7.40;;;;;;;28.28;38.82;100710.63;107910;1251;74714;-73
2023/06/18 10:02:45;;;;;;;4.90;3.70;;;;;;;28.35;38.32;100707.96;107944;1253;70996;-74
2023/06/18 10:05:12;;;;;;;6.40;4.40;;;;;;;28.40;37.61;100707.15;108462;1252;72527;-73
2023/06/18 10:07:40;;;;;;;5.00;4.00;;;;;;;28.43;37.85;100710.10;108148;1252;61129;-72
2023/06/18 10:10:14;;;;;;;5.40;3.80;;;;;;;28.55;38.32;100712.75;108074;1252;59751;-72
2023/06/18 10:12:48;;;;;;;6.10;3.90;;;;;;;28.65;36.73;100709.48;107971;1253;73487;-75
2023/06/18 10:15:16;;;;;;;24.60;22.00;;;;;;;28.67;36.25;100710.00;107919;1253;70504;-75
2023/06/18 10:17:51;;;;;;;4.80;3.80;;;;;;;28.73;36.71;100714.05;107975;1253;71625;-73
2023/06/18 10:20:18;;;;;;;73.60;56.90;;;;;;;28.81;35.38;100709.66;108426;1253;59386;-74
2023/06/18 10:22:49;;;;;;;16.20;13.50;;;;;;;28.90;35.30;100706.09;108173;1252;61167;-73
2023/06/18 10:25:17;;;;;;;4.70;4.20;;;;;;;28.96;35.31;100706.87;107487;1253;73964;-75
2023/06/18 10:27:45;;;;;;;5.20;4.30;;;;;;;28.98;35.45;100708.21;108075;1252;70174;-74
2023/06/18 10:30:13;;;;;;;5.10;4.10;;;;;;;28.87;35.16;100704.35;108144;1252;71610;-75
2023/06/18 10:32:46;;;;;;;4.90;3.90;;;;;;;28.79;35.79;100702.98;108585;1252;60503;-73
2023/06/18 10:35:14;;;;;;;5.00;3.80;;;;;;;28.91;36.15;100702.09;108213;1253;60813;-72
2023/06/18 10:37:43;;;;;;;50.10;42.60;;;;;;;29.02;35.08;100699.17;108234;1251;73105;-75
2023/06/18 10:40:11;;;;;;;47.90;42.60;;;;;;;29.18;35.92;100698.83;108108;1252;71300;-73
2023/06/18 10:42:38;;;;;;;22.30;19.80;;;;;;;29.35;35.45;100698.54;108420;1252;72563;-73
2023/06/18 10:45:13;;;;;;;17.90;16.00;;;;;;;29.51;34.99;100694.57;108194;1253;61234;-75
2023/06/18 10:47:41;;;;;;;4.30;3.80;;;;;;;29.65;35.06;100698.55;108236;1253;60578;-75
2023/06/18 10:50:11;;;;;;;5.40;3.90;;;;;;;29.74;33.66;100696.02;108367;1251;73959;-78
2023/06/18 10:52:45;;;;;;;5.20;4.20;;;;;;;29.75;33.61;100698.51;107682;1253;69913;-72
2023/06/18 10:55:28;;;;;;;4.20;3.80;;;;;;;29.68;32.90;100690.41;108255;1253;72767;-74
2023/06/18 10:58:02;;;;;;;4.80;3.70;;;;;;;29.61;33.16;100689.13;108302;1251;61212;-78
2023/06/18 11:00:40;;;;;;;6.90;6.20;;;;;;;29.70;34.07;100686.00;108481;1252;59121;-78
2023/06/18 11:03:17;;;;;;;4.90;3.50;;;;;;;29.62;31.90;100681.61;107934;1252;73179;-76
2023/06/18 11:05:49;;;;;;;7.50;4.10;;;;;;;29.53;31.92;100676.81;107833;1252;71320;-80
2023/06/18 11:08:25;;;;;;;5.30;3.60;;;;;;;29.63;33.10;100674.00;108239;1253;73190;-79
2023/06/18 11:11:12;;;;;;;3.50;2.80;;;;;;;29.80;31.67;100668.48;108448;1257;61778;-76